sensor_id;sensor_type;location;lat;lon;timestamp;pressure;altitude;pressure_sealevel;temperature;humidity
22651;BME280;11492;42.646;23.400;2023-08-07T00:00:40;94480.94;;;19.23;66.84
22651;BME280;11492;42.646;23.400;2023-08-07T00:03:06;94483.44;;;19.14;67.65
22651;BME280;11492;42.646;23.400;2023-08-07T00:05:31;94461.41;;;19.10;67.07
22651;BME280;11492;42.646;23.400;2023-08-07T00:07:56;94475.59;;;19.14;67.76
22651;BME280;11492;42.646;23.400;2023-08-07T00:10:22;94475.63;;;18.98;67.76
22651;BME280;11492;42.646;23.400;2023-08-07T00:12:47;94488.00;;;19.02;67.93
22651;BME280;11492;42.646;23.400;2023-08-07T00:15:13;94487.94;;;18.97;67.88
22651;BME280;11492;42.646;23.400;2023-08-07T00:17:38;94489.88;;;18.85;68.48
22651;BME280;11492;42.646;23.400;2023-08-07T00:20:04;94482.94;;;18.79;69.18
22651;BME280;11492;42.646;23.400;2023-08-07T00:22:30;94469.22;;;18.72;69.18
22651;BME280;11492;42.646;23.400;2023-08-07T00:24:56;94469.72;;;18.86;68.46
22651;BME280;11492;42.646;23.400;2023-08-07T00:27:21;94471.91;;;18.94;68.58
22651;BME280;11492;42.646;23.400;2023-08-07T00:29:47;94475.75;;;18.86;68.97
22651;BME280;11492;42.646;23.400;2023-08-07T00:32:12;94481.13;;;18.80;68.61
22651;BME280;11492;42.646;23.400;2023-08-07T00:34:37;94488.91;;;18.75;69.08
22651;BME280;11492;42.646;23.400;2023-08-07T00:37:03;94478.91;;;18.72;68.85
22651;BME280;11492;42.646;23.400;2023-08-07T00:39:28;94496.50;;;18.76;68.53
22651;BME280;11492;42.646;23.400;2023-08-07T00:41:54;94495.25;;;18.79;68.59
22651;BME280;11492;42.646;23.400;2023-08-07T00:44:19;94499.38;;;18.75;68.55
22651;BME280;11492;42.646;23.400;2023-08-07T00:46:45;94501.19;;;18.74;69.06
22651;BME280;11492;42.646;23.400;2023-08-07T00:49:12;94501.91;;;18.70;68.90
22651;BME280;11492;42.646;23.400;2023-08-07T00:51:39;94516.81;;;18.70;69.41
22651;BME280;11492;42.646;23.400;2023-08-07T00:54:05;94511.09;;;18.56;69.24
22651;BME280;11492;42.646;23.400;2023-08-07T00:56:31;94517.84;;;18.52;69.72
22651;BME280;11492;42.646;23.400;2023-08-07T00:58:58;94514.34;;;18.47;69.73
22651;BME280;11492;42.646;23.400;2023-08-07T01:01:25;94517.53;;;18.49;69.95
22651;BME280;11492;42.646;23.400;2023-08-07T01:03:50;94519.66;;;18.52;70.00
22651;BME280;11492;42.646;23.400;2023-08-07T01:06:16;94519.38;;;18.48;69.17
22651;BME280;11492;42.646;23.400;2023-08-07T01:08:41;94518.72;;;18.42;69.66
22651;BME280;11492;42.646;23.400;2023-08-07T01:11:10;94526.47;;;18.37;70.02
22651;BME280;11492;42.646;23.400;2023-08-07T01:13:49;94536.72;;;18.38;70.41
22651;BME280;11492;42.646;23.400;2023-08-07T01:19:27;94544.22;;;18.35;70.75
22651;BME280;11492;42.646;23.400;2023-08-07T01:24:35;94528.69;;;18.12;70.91
22651;BME280;11492;42.646;23.400;2023-08-07T01:32:53;94536.28;;;18.14;69.81
22651;BME280;11492;42.646;23.400;2023-08-07T01:35:22;94524.41;;;18.23;69.33
22651;BME280;11492;42.646;23.400;2023-08-07T01:37:51;94516.75;;;18.32;69.34
22651;BME280;11492;42.646;23.400;2023-08-07T01:40:20;94521.03;;;18.38;69.17
22651;BME280;11492;42.646;23.400;2023-08-07T01:42:46;94515.22;;;18.36;68.89
22651;BME280;11492;42.646;23.400;2023-08-07T01:45:12;94519.13;;;18.34;69.36
22651;BME280;11492;42.646;23.400;2023-08-07T01:47:38;94530.13;;;18.36;69.66
22651;BME280;11492;42.646;23.400;2023-08-07T01:50:03;94528.53;;;18.35;69.09
22651;BME280;11492;42.646;23.400;2023-08-07T01:52:29;94534.00;;;18.33;69.57
22651;BME280;11492;42.646;23.400;2023-08-07T01:54:54;94534.81;;;18.34;69.71
22651;BME280;11492;42.646;23.400;2023-08-07T01:57:20;94534.22;;;18.32;69.39
22651;BME280;11492;42.646;23.400;2023-08-07T01:59:45;94537.97;;;18.36;69.18
22651;BME280;11492;42.646;23.400;2023-08-07T02:02:11;94543.59;;;18.28;69.35
22651;BME280;11492;42.646;23.400;2023-08-07T02:04:36;94538.03;;;18.24;69.91
22651;BME280;11492;42.646;23.400;2023-08-07T02:07:02;94531.94;;;18.19;70.25
22651;BME280;11492;42.646;23.400;2023-08-07T02:09:27;94540.91;;;18.23;70.18
22651;BME280;11492;42.646;23.400;2023-08-07T02:11:52;94550.22;;;18.19;70.38
22651;BME280;11492;42.646;23.400;2023-08-07T02:14:18;94546.50;;;18.15;70.31
22651;BME280;11492;42.646;23.400;2023-08-07T02:16:43;94556.06;;;18.10;70.79
22651;BME280;11492;42.646;23.400;2023-08-07T02:19:09;94554.31;;;17.99;71.36
22651;BME280;11492;42.646;23.400;2023-08-07T02:21:34;94555.59;;;17.97;71.38
22651;BME280;11492;42.646;23.400;2023-08-07T02:23:59;94554.78;;;17.96;71.55
22651;BME280;11492;42.646;23.400;2023-08-07T02:26:25;94555.56;;;17.85;71.21
22651;BME280;11492;42.646;23.400;2023-08-07T02:28:50;94565.13;;;17.80;72.12
22651;BME280;11492;42.646;23.400;2023-08-07T02:31:16;94567.44;;;17.76;72.02
22651;BME280;11492;42.646;23.400;2023-08-07T02:33:41;94556.31;;;17.70;72.22
22651;BME280;11492;42.646;23.400;2023-08-07T02:36:07;94564.03;;;17.76;72.93
22651;BME280;11492;42.646;23.400;2023-08-07T02:38:33;94568.56;;;17.80;72.51
22651;BME280;11492;42.646;23.400;2023-08-07T02:40:58;94567.84;;;17.85;72.56
22651;BME280;11492;42.646;23.400;2023-08-07T02:43:24;94567.53;;;17.81;71.79
22651;BME280;11492;42.646;23.400;2023-08-07T02:45:51;94570.84;;;17.77;71.85
22651;BME280;11492;42.646;23.400;2023-08-07T02:48:16;94570.66;;;17.67;71.63
22651;BME280;11492;42.646;23.400;2023-08-07T02:50:42;94575.88;;;17.67;71.44
22651;BME280;11492;42.646;23.400;2023-08-07T02:53:10;94575.75;;;17.62;71.32
22651;BME280;11492;42.646;23.400;2023-08-07T02:55:36;94580.75;;;17.64;72.04
22651;BME280;11492;42.646;23.400;2023-08-07T02:58:01;94579.31;;;17.56;71.46
22651;BME280;11492;42.646;23.400;2023-08-07T03:00:27;94580.22;;;17.50;72.05
22651;BME280;11492;42.646;23.400;2023-08-07T03:02:52;94577.97;;;17.43;72.03
22651;BME280;11492;42.646;23.400;2023-08-07T03:05:18;94590.13;;;17.37;72.32
22651;BME280;11492;42.646;23.400;2023-08-07T03:07:43;94590.81;;;17.33;72.41
22651;BME280;11492;42.646;23.400;2023-08-07T03:10:09;94593.09;;;17.29;73.03
22651;BME280;11492;42.646;23.400;2023-08-07T03:12:34;94587.88;;;17.29;72.46
22651;BME280;11492;42.646;23.400;2023-08-07T03:15:00;94593.88;;;17.30;72.86
22651;BME280;11492;42.646;23.400;2023-08-07T03:17:26;94595.47;;;17.31;72.97
22651;BME280;11492;42.646;23.400;2023-08-07T03:19:51;94600.13;;;17.40;72.20
22651;BME280;11492;42.646;23.400;2023-08-07T03:22:17;94607.59;;;17.37;72.10
22651;BME280;11492;42.646;23.400;2023-08-07T03:24:46;94616.00;;;17.39;72.27
22651;BME280;11492;42.646;23.400;2023-08-07T03:27:13;94613.84;;;17.36;72.59
22651;BME280;11492;42.646;23.400;2023-08-07T03:29:38;94614.28;;;17.33;72.18
22651;BME280;11492;42.646;23.400;2023-08-07T03:32:03;94620.66;;;17.37;72.51
22651;BME280;11492;42.646;23.400;2023-08-07T03:34:29;94619.28;;;17.46;72.20
22651;BME280;11492;42.646;23.400;2023-08-07T03:36:54;94616.44;;;17.47;72.26
22651;BME280;11492;42.646;23.400;2023-08-07T03:39:20;94624.16;;;17.53;72.51
22651;BME280;11492;42.646;23.400;2023-08-07T03:41:45;94615.44;;;17.37;72.00
22651;BME280;11492;42.646;23.400;2023-08-07T03:44:11;94624.03;;;17.48;72.38
22651;BME280;11492;42.646;23.400;2023-08-07T03:46:36;94631.53;;;17.56;72.64
22651;BME280;11492;42.646;23.400;2023-08-07T03:49:02;94628.78;;;17.63;72.07
22651;BME280;11492;42.646;23.400;2023-08-07T03:51:27;94626.28;;;17.68;71.73
22651;BME280;11492;42.646;23.400;2023-08-07T03:53:54;94636.97;;;17.66;72.38
22651;BME280;11492;42.646;23.400;2023-08-07T03:56:19;94630.72;;;17.67;72.41
22651;BME280;11492;42.646;23.400;2023-08-07T03:58:45;94634.22;;;17.72;72.08
22651;BME280;11492;42.646;23.400;2023-08-07T04:01:10;94642.41;;;17.76;72.12
22651;BME280;11492;42.646;23.400;2023-08-07T04:03:36;94649.56;;;17.80;71.86
22651;BME280;11492;42.646;23.400;2023-08-07T04:06:02;94650.34;;;17.81;72.36
22651;BME280;11492;42.646;23.400;2023-08-07T04:08:30;94662.25;;;17.88;72.24
22651;BME280;11492;42.646;23.400;2023-08-07T04:13:26;94666.13;;;17.97;71.99
22651;BME280;11492;42.646;23.400;2023-08-07T04:15:51;94663.81;;;18.12;70.75
22651;BME280;11492;42.646;23.400;2023-08-07T04:18:17;94667.63;;;18.21;69.94
22651;BME280;11492;42.646;23.400;2023-08-07T04:20:48;94668.50;;;18.26;69.57
22651;BME280;11492;42.646;23.400;2023-08-07T04:23:14;94669.50;;;18.09;68.42
22651;BME280;11492;42.646;23.400;2023-08-07T04:25:39;94672.69;;;17.99;67.86
22651;BME280;11492;42.646;23.400;2023-08-07T04:28:04;94667.91;;;17.85;68.71
22651;BME280;11492;42.646;23.400;2023-08-07T04:30:30;94674.06;;;17.91;68.31
22651;BME280;11492;42.646;23.400;2023-08-07T04:32:56;94657.25;;;17.87;69.19
22651;BME280;11492;42.646;23.400;2023-08-07T04:35:21;94673.59;;;17.94;68.28
22651;BME280;11492;42.646;23.400;2023-08-07T04:37:46;94676.19;;;17.94;68.52
22651;BME280;11492;42.646;23.400;2023-08-07T04:40:12;94678.03;;;18.04;68.50
22651;BME280;11492;42.646;23.400;2023-08-07T04:42:38;94670.97;;;18.05;68.07
22651;BME280;11492;42.646;23.400;2023-08-07T04:45:03;94669.16;;;18.05;67.26
22651;BME280;11492;42.646;23.400;2023-08-07T04:47:29;94679.16;;;18.08;67.44
22651;BME280;11492;42.646;23.400;2023-08-07T04:49:54;94684.72;;;18.12;66.96
22651;BME280;11492;42.646;23.400;2023-08-07T04:52:20;94676.63;;;18.13;67.46
22651;BME280;11492;42.646;23.400;2023-08-07T04:54:45;94667.72;;;18.25;66.79
22651;BME280;11492;42.646;23.400;2023-08-07T04:57:11;94668.75;;;18.24;67.20
22651;BME280;11492;42.646;23.400;2023-08-07T04:59:36;94667.03;;;18.30;66.62
22651;BME280;11492;42.646;23.400;2023-08-07T05:02:02;94672.69;;;18.38;66.77
22651;BME280;11492;42.646;23.400;2023-08-07T05:04:27;94673.47;;;18.39;67.01
22651;BME280;11492;42.646;23.400;2023-08-07T05:06:53;94673.78;;;18.42;66.53
22651;BME280;11492;42.646;23.400;2023-08-07T05:09:18;94667.13;;;18.35;66.74
22651;BME280;11492;42.646;23.400;2023-08-07T05:11:43;94659.28;;;18.35;66.54
22651;BME280;11492;42.646;23.400;2023-08-07T05:14:10;94664.84;;;18.38;65.97
22651;BME280;11492;42.646;23.400;2023-08-07T05:16:35;94647.03;;;18.24;65.61
22651;BME280;11492;42.646;23.400;2023-08-07T05:19:00;94657.06;;;18.27;65.35
22651;BME280;11492;42.646;23.400;2023-08-07T05:21:26;94658.88;;;18.15;65.83
22651;BME280;11492;42.646;23.400;2023-08-07T05:23:51;94655.22;;;18.27;65.61
22651;BME280;11492;42.646;23.400;2023-08-07T05:26:20;94643.84;;;18.33;66.24
22651;BME280;11492;42.646;23.400;2023-08-07T05:28:46;94655.91;;;18.50;65.41
22651;BME280;11492;42.646;23.400;2023-08-07T05:31:12;94656.00;;;18.55;65.21
22651;BME280;11492;42.646;23.400;2023-08-07T05:33:37;94659.81;;;18.64;64.71
22651;BME280;11492;42.646;23.400;2023-08-07T05:36:02;94672.22;;;18.69;65.00
22651;BME280;11492;42.646;23.400;2023-08-07T05:38:28;94660.47;;;18.71;64.07
22651;BME280;11492;42.646;23.400;2023-08-07T05:40:53;94647.78;;;18.79;63.09
22651;BME280;11492;42.646;23.400;2023-08-07T05:43:19;94655.69;;;18.96;63.05
22651;BME280;11492;42.646;23.400;2023-08-07T05:45:44;94657.97;;;19.08;62.43
22651;BME280;11492;42.646;23.400;2023-08-07T05:48:11;94658.22;;;19.23;62.19
22651;BME280;11492;42.646;23.400;2023-08-07T05:50:37;94662.03;;;19.32;61.45
22651;BME280;11492;42.646;23.400;2023-08-07T05:53:02;94653.22;;;19.38;60.99
22651;BME280;11492;42.646;23.400;2023-08-07T05:55:28;94658.03;;;19.46;61.16
22651;BME280;11492;42.646;23.400;2023-08-07T05:57:53;94663.50;;;19.44;60.66
22651;BME280;11492;42.646;23.400;2023-08-07T06:00:19;94658.03;;;19.46;60.58
22651;BME280;11492;42.646;23.400;2023-08-07T06:02:45;94663.19;;;19.57;60.81
22651;BME280;11492;42.646;23.400;2023-08-07T06:05:11;94661.59;;;19.40;60.56
22651;BME280;11492;42.646;23.400;2023-08-07T06:07:39;94662.88;;;19.53;60.27
22651;BME280;11492;42.646;23.400;2023-08-07T06:10:05;94665.56;;;19.58;59.81
22651;BME280;11492;42.646;23.400;2023-08-07T06:12:31;94660.13;;;19.65;59.52
22651;BME280;11492;42.646;23.400;2023-08-07T06:14:56;94657.44;;;19.76;59.18
22651;BME280;11492;42.646;23.400;2023-08-07T06:17:22;94658.47;;;19.75;59.17
22651;BME280;11492;42.646;23.400;2023-08-07T06:19:47;94649.22;;;19.89;59.12
22651;BME280;11492;42.646;23.400;2023-08-07T06:22:13;94657.16;;;19.94;58.18
22651;BME280;11492;42.646;23.400;2023-08-07T06:24:38;94653.81;;;19.98;58.13
22651;BME280;11492;42.646;23.400;2023-08-07T06:27:04;94651.91;;;19.94;58.21
22651;BME280;11492;42.646;23.400;2023-08-07T06:29:29;94649.91;;;20.00;57.82
22651;BME280;11492;42.646;23.400;2023-08-07T06:31:55;94640.56;;;20.09;57.77
22651;BME280;11492;42.646;23.400;2023-08-07T06:34:20;94633.41;;;20.26;57.38
22651;BME280;11492;42.646;23.400;2023-08-07T06:36:46;94641.94;;;20.38;57.20
22651;BME280;11492;42.646;23.400;2023-08-07T06:39:11;94645.78;;;20.51;55.91
22651;BME280;11492;42.646;23.400;2023-08-07T06:41:37;94649.31;;;20.62;55.47
22651;BME280;11492;42.646;23.400;2023-08-07T06:44:02;94649.91;;;20.69;54.17
22651;BME280;11492;42.646;23.400;2023-08-07T06:46:28;94655.25;;;20.52;52.25
22651;BME280;11492;42.646;23.400;2023-08-07T06:48:53;94659.44;;;20.53;52.99
22651;BME280;11492;42.646;23.400;2023-08-07T06:51:19;94657.53;;;20.70;52.56
22651;BME280;11492;42.646;23.400;2023-08-07T06:53:44;94644.38;;;20.65;50.50
22651;BME280;11492;42.646;23.400;2023-08-07T06:56:10;94659.72;;;20.78;51.46
22651;BME280;11492;42.646;23.400;2023-08-07T06:58:35;94656.09;;;20.58;49.32
22651;BME280;11492;42.646;23.400;2023-08-07T07:01:00;94656.41;;;20.61;49.96
22651;BME280;11492;42.646;23.400;2023-08-07T07:03:26;94661.34;;;20.84;50.34
22651;BME280;11492;42.646;23.400;2023-08-07T07:05:51;94655.72;;;21.01;49.73
22651;BME280;11492;42.646;23.400;2023-08-07T07:08:17;94665.28;;;21.12;49.60
22651;BME280;11492;42.646;23.400;2023-08-07T07:10:42;94656.56;;;21.07;49.63
22651;BME280;11492;42.646;23.400;2023-08-07T07:13:08;94639.50;;;21.09;49.47
22651;BME280;11492;42.646;23.400;2023-08-07T07:15:34;94649.47;;;21.07;48.02
22651;BME280;11492;42.646;23.400;2023-08-07T07:18:01;94646.69;;;21.19;48.75
22651;BME280;11492;42.646;23.400;2023-08-07T07:20:26;94647.91;;;21.42;49.95
22651;BME280;11492;42.646;23.400;2023-08-07T07:22:52;94647.22;;;21.56;49.05
22651;BME280;11492;42.646;23.400;2023-08-07T07:25:18;94638.91;;;21.69;48.66
22651;BME280;11492;42.646;23.400;2023-08-07T07:27:43;94653.47;;;21.86;47.76
22651;BME280;11492;42.646;23.400;2023-08-07T07:30:09;94647.53;;;22.00;47.49
22651;BME280;11492;42.646;23.400;2023-08-07T07:32:35;94648.63;;;22.14;47.69
22651;BME280;11492;42.646;23.400;2023-08-07T07:35:01;94641.53;;;22.24;46.91
22651;BME280;11492;42.646;23.400;2023-08-07T07:37:26;94640.78;;;22.34;47.06
22651;BME280;11492;42.646;23.400;2023-08-07T07:39:51;94639.53;;;22.41;46.92
22651;BME280;11492;42.646;23.400;2023-08-07T07:42:17;94649.81;;;22.48;46.52
22651;BME280;11492;42.646;23.400;2023-08-07T07:44:43;94652.09;;;22.29;46.29
22651;BME280;11492;42.646;23.400;2023-08-07T07:47:08;94662.38;;;22.26;47.23
22651;BME280;11492;42.646;23.400;2023-08-07T07:49:33;94662.38;;;22.26;47.61
22651;BME280;11492;42.646;23.400;2023-08-07T07:52:00;94653.41;;;22.22;47.48
22651;BME280;11492;42.646;23.400;2023-08-07T07:54:25;94642.69;;;22.43;47.50
22651;BME280;11492;42.646;23.400;2023-08-07T07:56:51;94646.13;;;22.58;46.97
22651;BME280;11492;42.646;23.400;2023-08-07T07:59:16;94651.44;;;22.68;46.27
22651;BME280;11492;42.646;23.400;2023-08-07T08:01:42;94641.47;;;22.75;46.65
22651;BME280;11492;42.646;23.400;2023-08-07T08:04:07;94642.78;;;22.87;46.54
22651;BME280;11492;42.646;23.400;2023-08-07T08:06:32;94642.56;;;23.03;45.56
22651;BME280;11492;42.646;23.400;2023-08-07T08:08:58;94637.28;;;23.62;45.01
22651;BME280;11492;42.646;23.400;2023-08-07T08:11:24;94639.47;;;24.32;42.60
22651;BME280;11492;42.646;23.400;2023-08-07T08:13:50;94638.91;;;24.88;41.92
22651;BME280;11492;42.646;23.400;2023-08-07T08:16:15;94639.91;;;25.67;40.50
22651;BME280;11492;42.646;23.400;2023-08-07T08:18:41;94635.72;;;26.35;38.29
22651;BME280;11492;42.646;23.400;2023-08-07T08:21:06;94631.44;;;26.99;37.75
22651;BME280;11492;42.646;23.400;2023-08-07T08:23:32;94634.22;;;27.43;36.25
22651;BME280;11492;42.646;23.400;2023-08-07T08:25:57;94630.75;;;27.74;36.20
22651;BME280;11492;42.646;23.400;2023-08-07T08:28:23;94625.50;;;28.14;35.46
22651;BME280;11492;42.646;23.400;2023-08-07T08:30:48;94620.50;;;28.26;34.85
22651;BME280;11492;42.646;23.400;2023-08-07T08:33:14;94613.59;;;28.38;34.50
22651;BME280;11492;42.646;23.400;2023-08-07T08:35:40;94624.75;;;28.40;34.83
22651;BME280;11492;42.646;23.400;2023-08-07T08:38:06;94623.06;;;28.57;33.87
22651;BME280;11492;42.646;23.400;2023-08-07T08:40:31;94625.84;;;28.87;33.25
22651;BME280;11492;42.646;23.400;2023-08-07T08:43:00;94618.75;;;28.96;33.31
22651;BME280;11492;42.646;23.400;2023-08-07T08:45:26;94616.75;;;29.14;33.12
22651;BME280;11492;42.646;23.400;2023-08-07T08:47:54;94614.84;;;28.80;32.94
22651;BME280;11492;42.646;23.400;2023-08-07T08:50:21;94613.88;;;28.76;33.62
22651;BME280;11492;42.646;23.400;2023-08-07T08:52:46;94612.19;;;28.80;33.10
22651;BME280;11492;42.646;23.400;2023-08-07T08:55:12;94607.44;;;28.90;33.68
22651;BME280;11492;42.646;23.400;2023-08-07T08:57:39;94610.47;;;29.10;32.92
22651;BME280;11492;42.646;23.400;2023-08-07T09:00:09;94594.81;;;28.96;33.81
22651;BME280;11492;42.646;23.400;2023-08-07T09:02:46;94604.56;;;28.87;33.06
22651;BME280;11492;42.646;23.400;2023-08-07T09:05:12;94592.13;;;28.61;33.54
22651;BME280;11492;42.646;23.400;2023-08-07T09:07:37;94593.47;;;28.85;32.96
22651;BME280;11492;42.646;23.400;2023-08-07T09:10:03;94590.03;;;29.19;32.61
22651;BME280;11492;42.646;23.400;2023-08-07T09:12:32;94584.69;;;29.41;32.57
22651;BME280;11492;42.646;23.400;2023-08-07T09:14:58;94584.22;;;29.60;31.44
22651;BME280;11492;42.646;23.400;2023-08-07T09:17:24;94584.31;;;29.77;31.19
22651;BME280;11492;42.646;23.400;2023-08-07T09:19:52;94577.63;;;29.96;31.15
22651;BME280;11492;42.646;23.400;2023-08-07T09:22:19;94588.25;;;30.09;30.38
22651;BME280;11492;42.646;23.400;2023-08-07T09:24:44;94588.28;;;29.88;30.58
22651;BME280;11492;42.646;23.400;2023-08-07T09:27:10;94580.22;;;29.71;31.50
22651;BME280;11492;42.646;23.400;2023-08-07T09:29:35;94578.91;;;29.99;31.35
22651;BME280;11492;42.646;23.400;2023-08-07T09:32:16;94580.09;;;30.61;30.84
22651;BME280;11492;42.646;23.400;2023-08-07T09:34:43;94575.34;;;30.50;30.94
22651;BME280;11492;42.646;23.400;2023-08-07T09:37:09;94570.25;;;30.86;30.59
22651;BME280;11492;42.646;23.400;2023-08-07T09:39:36;94566.50;;;31.12;30.34
22651;BME280;11492;42.646;23.400;2023-08-07T09:42:03;94567.13;;;31.43;29.28
22651;BME280;11492;42.646;23.400;2023-08-07T09:44:37;94562.50;;;31.60;29.14
22651;BME280;11492;42.646;23.400;2023-08-07T09:47:13;94565.84;;;31.49;28.53
22651;BME280;11492;42.646;23.400;2023-08-07T09:49:43;94564.91;;;31.45;29.97
22651;BME280;11492;42.646;23.400;2023-08-07T09:52:10;94576.84;;;31.39;29.63
22651;BME280;11492;42.646;23.400;2023-08-07T09:54:36;94567.72;;;31.40;29.71
22651;BME280;11492;42.646;23.400;2023-08-07T09:57:03;94579.22;;;31.32;29.11
22651;BME280;11492;42.646;23.400;2023-08-07T09:59:29;94567.59;;;31.28;29.80
22651;BME280;11492;42.646;23.400;2023-08-07T10:01:55;94567.72;;;31.40;29.98
22651;BME280;11492;42.646;23.400;2023-08-07T10:04:21;94575.13;;;31.43;29.14
22651;BME280;11492;42.646;23.400;2023-08-07T10:06:47;94580.13;;;31.53;29.84
22651;BME280;11492;42.646;23.400;2023-08-07T10:09:13;94569.91;;;31.71;28.53
22651;BME280;11492;42.646;23.400;2023-08-07T10:11:39;94566.59;;;31.74;29.18
22651;BME280;11492;42.646;23.400;2023-08-07T10:14:06;94566.72;;;31.86;28.90
22651;BME280;11492;42.646;23.400;2023-08-07T10:16:32;94575.25;;;31.71;29.05
22651;BME280;11492;42.646;23.400;2023-08-07T10:18:58;94570.03;;;31.83;29.39
22651;BME280;11492;42.646;23.400;2023-08-07T10:21:24;94563.94;;;32.11;29.16
22651;BME280;11492;42.646;23.400;2023-08-07T10:23:52;94554.09;;;31.95;29.26
22651;BME280;11492;42.646;23.400;2023-08-07T10:26:19;94562.72;;;31.47;29.24
22651;BME280;11492;42.646;23.400;2023-08-07T10:28:46;94559.69;;;31.57;28.37
22651;BME280;11492;42.646;23.400;2023-08-07T10:31:14;94564.56;;;31.71;29.95
22651;BME280;11492;42.646;23.400;2023-08-07T10:33:41;94570.28;;;31.36;29.73
22651;BME280;11492;42.646;23.400;2023-08-07T10:36:10;94573.69;;;30.70;29.45
22651;BME280;11492;42.646;23.400;2023-08-07T10:38:36;94569.75;;;30.59;30.89
22651;BME280;11492;42.646;23.400;2023-08-07T10:43:36;94546.22;;;31.20;29.75
22651;BME280;11492;42.646;23.400;2023-08-07T10:46:14;94551.03;;;31.59;29.01
22651;BME280;11492;42.646;23.400;2023-08-07T10:48:44;94553.25;;;31.58;29.25
22651;BME280;11492;42.646;23.400;2023-08-07T10:51:18;94562.56;;;31.35;30.14
22651;BME280;11492;42.646;23.400;2023-08-07T10:53:47;94558.28;;;31.67;29.75
22651;BME280;11492;42.646;23.400;2023-08-07T10:56:30;94548.09;;;31.36;29.54
22651;BME280;11492;42.646;23.400;2023-08-07T10:58:55;94552.66;;;31.10;29.87
22651;BME280;11492;42.646;23.400;2023-08-07T11:01:42;94547.00;;;30.87;30.80
22651;BME280;11492;42.646;23.400;2023-08-07T11:04:10;94542.94;;;30.98;29.80
22651;BME280;11492;42.646;23.400;2023-08-07T11:06:37;94541.69;;;31.29;30.73
22651;BME280;11492;42.646;23.400;2023-08-07T11:09:05;94545.75;;;30.93;29.94
22651;BME280;11492;42.646;23.400;2023-08-07T11:11:47;94538.88;;;31.17;29.74
22651;BME280;11492;42.646;23.400;2023-08-07T11:14:18;94534.72;;;31.44;30.48
22651;BME280;11492;42.646;23.400;2023-08-07T11:16:45;94526.22;;;31.67;28.62
22651;BME280;11492;42.646;23.400;2023-08-07T11:19:13;94516.75;;;31.78;28.93
22651;BME280;11492;42.646;23.400;2023-08-07T11:21:40;94514.72;;;31.75;28.88
22651;BME280;11492;42.646;23.400;2023-08-07T11:24:06;94516.84;;;31.90;29.17
22651;BME280;11492;42.646;23.400;2023-08-07T11:26:31;94518.03;;;31.56;29.97
22651;BME280;11492;42.646;23.400;2023-08-07T11:28:57;94509.00;;;30.98;30.07
22651;BME280;11492;42.646;23.400;2023-08-07T11:31:23;94510.59;;;30.66;30.91
22651;BME280;11492;42.646;23.400;2023-08-07T11:33:54;94507.47;;;30.64;31.47
22651;BME280;11492;42.646;23.400;2023-08-07T11:36:20;94502.44;;;31.12;31.81
22651;BME280;11492;42.646;23.400;2023-08-07T11:38:46;94494.16;;;31.67;30.60
22651;BME280;11492;42.646;23.400;2023-08-07T11:41:13;94503.50;;;32.18;29.23
22651;BME280;11492;42.646;23.400;2023-08-07T11:43:40;94499.91;;;32.43;29.53
22651;BME280;11492;42.646;23.400;2023-08-07T11:46:13;94498.00;;;32.72;29.76
22651;BME280;11492;42.646;23.400;2023-08-07T11:48:38;94511.13;;;32.85;28.67
22651;BME280;11492;42.646;23.400;2023-08-07T11:51:05;94511.78;;;32.82;28.46
22651;BME280;11492;42.646;23.400;2023-08-07T11:53:33;94504.97;;;33.05;29.21
22651;BME280;11492;42.646;23.400;2023-08-07T11:56:01;94503.28;;;33.20;28.19
22651;BME280;11492;42.646;23.400;2023-08-07T11:58:31;94491.72;;;33.40;27.63
22651;BME280;11492;42.646;23.400;2023-08-07T12:00:58;94485.94;;;33.50;27.13
22651;BME280;11492;42.646;23.400;2023-08-07T12:03:30;94487.94;;;33.41;27.24
22651;BME280;11492;42.646;23.400;2023-08-07T12:05:57;94485.66;;;33.31;27.88
22651;BME280;11492;42.646;23.400;2023-08-07T12:08:24;94480.69;;;33.41;27.93
22651;BME280;11492;42.646;23.400;2023-08-07T12:10:53;94488.13;;;33.68;28.57
22651;BME280;11492;42.646;23.400;2023-08-07T12:13:26;94479.38;;;33.59;28.52
22651;BME280;11492;42.646;23.400;2023-08-07T12:15:55;94483.81;;;33.87;26.83
22651;BME280;11492;42.646;23.400;2023-08-07T12:18:22;94484.22;;;33.89;27.16
22651;BME280;11492;42.646;23.400;2023-08-07T12:21:01;94483.78;;;33.75;27.36
22651;BME280;11492;42.646;23.400;2023-08-07T12:23:27;94475.19;;;33.38;27.18
22651;BME280;11492;42.646;23.400;2023-08-07T12:25:53;94478.34;;;33.40;27.89
22651;BME280;11492;42.646;23.400;2023-08-07T12:28:19;94474.75;;;33.36;27.36
22651;BME280;11492;42.646;23.400;2023-08-07T12:30:46;94475.13;;;33.14;27.76
22651;BME280;11492;42.646;23.400;2023-08-07T12:33:12;94481.97;;;33.04;28.24
22651;BME280;11492;42.646;23.400;2023-08-07T12:35:38;94473.38;;;32.78;28.39
22651;BME280;11492;42.646;23.400;2023-08-07T12:38:03;94473.50;;;32.61;28.97
22651;BME280;11492;42.646;23.400;2023-08-07T12:40:32;94474.53;;;32.49;29.81
22651;BME280;11492;42.646;23.400;2023-08-07T12:42:58;94466.88;;;32.39;29.58
22651;BME280;11492;42.646;23.400;2023-08-07T12:45:24;94473.28;;;32.26;29.40
22651;BME280;11492;42.646;23.400;2023-08-07T12:47:50;94471.50;;;32.02;28.88
22651;BME280;11492;42.646;23.400;2023-08-07T12:50:15;94471.59;;;31.85;30.12
22651;BME280;11492;42.646;23.400;2023-08-07T12:52:41;94476.41;;;32.00;31.29
22651;BME280;11492;42.646;23.400;2023-08-07T12:55:07;94480.28;;;32.02;29.98
22651;BME280;11492;42.646;23.400;2023-08-07T12:57:33;94480.53;;;31.89;30.67
22651;BME280;11492;42.646;23.400;2023-08-07T13:00:02;94487.38;;;31.70;31.69
22651;BME280;11492;42.646;23.400;2023-08-07T13:02:27;94484.03;;;31.81;30.58